Time;durP1;ratioP1;P1;durP2;ratioP2;P2;SDS_P1;SDS_P2;PMS_P1;PMS_P2;Temp;Humidity;BMP_temperature;BMP_pressure;BME280_temperature;BME280_humidity;BME280_pressure;Samples;Min_cycle;Max_cycle;Signal;HPM_P1;HPM_P2
2023/01/31 00:00:56;;;;;;;13.10;1.50;;;4.30;99.90;;;;;;5003137;28;20230;-65
2023/01/31 00:03:23;;;;;;;10.27;2.50;;;4.30;99.90;;;;;;4985866;28;20237;-65
2023/01/31 00:05:49;;;;;;;10.60;2.27;;;4.30;99.90;;;;;;5002473;28;20217;-65
2023/01/31 00:08:17;;;;;;;6.30;1.20;;;4.20;99.90;;;;;;5004458;28;20210;-65
2023/01/31 00:10:45;;;;;;;8.17;2.00;;;4.20;99.90;;;;;;4989621;28;20285;-65
2023/01/31 00:13:12;;;;;;;8.03;1.83;;;4.30;99.90;;;;;;4976182;28;20206;-65
2023/01/31 00:15:38;;;;;;;17.40;2.53;;;4.30;99.90;;;;;;4992272;28;20234;-65
2023/01/31 00:18:05;;;;;;;11.33;2.20;;;4.30;99.90;;;;;;5000230;28;20207;-65
2023/01/31 00:20:32;;;;;;;10.13;1.80;;;4.30;99.90;;;;;;4976519;28;20222;-65
2023/01/31 00:22:59;;;;;;;17.70;2.47;;;4.30;99.90;;;;;;5001481;28;20210;-65
2023/01/31 00:25:26;;;;;;;14.23;2.10;;;4.30;99.90;;;;;;4999176;28;20199;-64
2023/01/31 00:27:54;;;;;;;6.10;2.13;;;4.30;99.90;;;;;;4990446;28;20202;-65
2023/01/31 00:30:21;;;;;;;10.07;2.47;;;4.30;99.90;;;;;;4965376;28;20367;-65
2023/01/31 00:32:48;;;;;;;19.90;2.33;;;4.30;99.90;;;;;;5003848;28;20198;-65
2023/01/31 00:35:15;;;;;;;9.50;1.80;;;4.30;99.90;;;;;;4989883;28;20213;-65
2023/01/31 00:37:42;;;;;;;7.77;1.77;;;4.30;99.90;;;;;;4997163;28;20739;-64
2023/01/31 00:40:10;;;;;;;9.03;1.87;;;4.30;99.90;;;;;;5003793;28;20234;-65
2023/01/31 00:42:37;;;;;;;16.40;2.83;;;4.40;99.90;;;;;;5004824;28;20202;-64
2023/01/31 00:45:06;;;;;;;15.60;2.20;;;4.40;99.90;;;;;;4968489;28;20712;-65
2023/01/31 00:47:33;;;;;;;13.67;2.07;;;4.40;99.90;;;;;;5004522;28;20209;-65
2023/01/31 00:50:00;;;;;;;11.43;1.87;;;4.40;99.90;;;;;;4990949;28;20213;-65
2023/01/31 00:52:27;;;;;;;13.87;2.20;;;4.40;99.90;;;;;;5004246;28;20198;-64
2023/01/31 00:54:54;;;;;;;10.03;2.40;;;4.40;99.90;;;;;;5002368;28;20197;-67
2023/01/31 00:57:21;;;;;;;10.20;2.93;;;4.40;99.90;;;;;;4997455;28;20205;-65
2023/01/31 00:59:48;;;;;;;11.00;2.50;;;4.40;99.90;;;;;;4970380;28;20211;-65
2023/01/31 01:02:16;;;;;;;12.03;2.03;;;4.40;99.90;;;;;;4997537;28;20207;-65
2023/01/31 01:04:43;;;;;;;10.83;2.30;;;4.30;99.90;;;;;;4981609;28;20202;-66
2023/01/31 01:07:10;;;;;;;12.10;3.17;;;4.30;99.90;;;;;;4989356;28;20213;-64
2023/01/31 01:09:36;;;;;;;6.43;2.13;;;4.30;99.90;;;;;;4997198;28;20210;-65
2023/01/31 01:12:03;;;;;;;13.90;2.40;;;4.40;99.90;;;;;;5006538;28;20217;-65
2023/01/31 01:14:31;;;;;;;17.97;2.30;;;4.30;99.90;;;;;;4985866;28;20313;-65
2023/01/31 01:16:58;;;;;;;9.20;2.20;;;4.30;99.90;;;;;;4986790;28;20195;-65
2023/01/31 01:19:26;;;;;;;9.50;2.10;;;4.30;99.90;;;;;;4998798;28;21716;-65
2023/01/31 01:21:54;;;;;;;10.50;1.70;;;4.30;99.90;;;;;;4988815;28;20234;-65
2023/01/31 01:24:21;;;;;;;10.33;2.20;;;4.30;99.90;;;;;;4988333;28;20223;-65
2023/01/31 01:26:48;;;;;;;8.43;2.23;;;4.30;99.90;;;;;;4995791;28;20241;-66
2023/01/31 01:29:15;;;;;;;10.30;2.43;;;4.30;99.90;;;;;;5004124;28;20249;-65
2023/01/31 01:31:42;;;;;;;22.93;2.63;;;4.20;99.90;;;;;;4950162;28;20215;-65
2023/01/31 01:34:13;;;;;;;16.60;3.07;;;4.20;99.90;;;;;;4995721;28;20225;-65
2023/01/31 01:36:41;;;;;;;15.33;2.30;;;4.20;99.90;;;;;;4985084;28;20198;-65
2023/01/31 01:39:10;;;;;;;11.70;2.27;;;4.10;99.90;;;;;;4987745;28;20230;-66
2023/01/31 01:41:39;;;;;;;7.67;1.67;;;4.10;99.90;;;;;;4987016;28;20233;-65
2023/01/31 01:44:43;;;;;;;11.10;2.50;;;4.10;99.90;;;;;;5006427;28;20202;-65
2023/01/31 01:47:16;;;;;;;4.87;1.57;;;4.00;99.90;;;;;;4959544;28;20600;-65
2023/01/31 01:49:46;;;;;;;5.27;1.47;;;4.00;99.90;;;;;;5001442;28;20198;-65
2023/01/31 01:52:16;;;;;;;10.50;2.13;;;4.00;99.90;;;;;;4987742;28;20226;-65
2023/01/31 01:54:48;;;;;;;10.17;1.90;;;4.00;99.90;;;;;;4992864;28;20209;-66
2023/01/31 01:57:19;;;;;;;10.73;1.90;;;4.00;99.90;;;;;;4993696;28;20208;-65
2023/01/31 01:59:50;;;;;;;11.13;2.10;;;4.10;99.90;;;;;;4998562;28;20198;-65
2023/01/31 02:02:52;;;;;;;10.70;1.87;;;4.20;99.90;;;;;;4963791;28;20818;-66
2023/01/31 02:05:24;;;;;;;9.17;2.20;;;4.20;99.90;;;;;;4977008;28;20209;-65
2023/01/31 02:07:52;;;;;;;7.93;1.63;;;4.20;99.90;;;;;;4985597;28;20991;-65
2023/01/31 02:10:23;;;;;;;16.30;1.93;;;4.30;99.90;;;;;;4991702;28;20213;-64
2023/01/31 02:12:51;;;;;;;13.57;1.97;;;4.30;99.90;;;;;;4991349;28;20323;-65
2023/01/31 02:15:18;;;;;;;11.73;1.97;;;4.30;99.90;;;;;;5000683;28;20235;-65
2023/01/31 02:17:45;;;;;;;5.43;1.40;;;4.30;99.90;;;;;;4972283;28;20267;-65
2023/01/31 02:20:27;;;;;;;7.60;1.60;;;4.40;99.90;;;;;;5005633;28;20194;-62
2023/01/31 02:23:17;;;;;;;7.90;2.23;;;4.40;99.90;;;;;;4990330;28;20205;-63
2023/01/31 02:26:20;;;;;;;13.83;2.27;;;4.40;99.90;;;;;;4980717;28;20794;-65
2023/01/31 02:29:07;;;;;;;11.17;1.77;;;4.40;99.90;;;;;;4984259;28;20206;-65
2023/01/31 02:32:14;;;;;;;9.40;1.83;;;4.50;99.90;;;;;;4967461;28;20209;-65
2023/01/31 02:34:50;;;;;;;12.30;2.40;;;4.50;99.90;;;;;;4997825;28;20202;-65
2023/01/31 02:37:28;;;;;;;14.13;2.57;;;4.50;99.90;;;;;;4989254;28;20215;-65
2023/01/31 02:40:08;;;;;;;6.77;1.63;;;4.40;99.90;;;;;;5002810;28;20660;-65
2023/01/31 02:42:47;;;;;;;17.60;2.00;;;4.50;99.90;;;;;;5008466;28;20218;-65
2023/01/31 02:45:22;;;;;;;13.33;2.67;;;4.50;99.90;;;;;;4995312;28;20210;-66
2023/01/31 02:48:07;;;;;;;11.97;2.50;;;4.40;99.90;;;;;;4949442;28;20683;-65
2023/01/31 02:50:41;;;;;;;7.57;1.77;;;4.40;99.90;;;;;;4986991;28;20249;-66
2023/01/31 02:53:14;;;;;;;13.00;2.17;;;4.40;99.90;;;;;;4991352;28;20217;-65
2023/01/31 02:58:33;;;;;;;9.37;1.90;;;4.40;99.90;;;;;;4992580;28;20251;-65
2023/01/31 03:01:03;;;;;;;16.83;2.63;;;4.40;99.90;;;;;;4995159;28;20248;-65
2023/01/31 03:03:33;;;;;;;12.63;2.30;;;4.40;99.90;;;;;;4943749;28;20283;-66
2023/01/31 03:06:53;;;;;;;15.03;2.43;;;4.40;99.90;;;;;;5008112;28;20205;-65
2023/01/31 03:09:30;;;;;;;18.20;2.77;;;4.40;99.90;;;;;;4994200;28;20902;-65
2023/01/31 03:12:17;;;;;;;11.27;2.60;;;4.40;99.90;;;;;;5008091;28;20201;-65
2023/01/31 03:14:48;;;;;;;21.17;2.43;;;4.40;99.90;;;;;;4994681;28;20225;-65
2023/01/31 03:17:33;;;;;;;18.57;2.87;;;4.40;99.90;;;;;;4984254;28;20198;-65
2023/01/31 03:20:08;;;;;;;19.73;2.60;;;4.30;99.90;;;;;;4992695;28;20197;-65
2023/01/31 03:22:39;;;;;;;15.30;2.93;;;4.30;99.90;;;;;;5002376;28;20232;-66
2023/01/31 03:25:11;;;;;;;21.77;3.17;;;4.30;99.90;;;;;;4981470;28;22344;-65
2023/01/31 03:27:42;;;;;;;17.67;2.33;;;4.30;99.90;;;;;;5001805;28;20565;-65
2023/01/31 03:30:15;;;;;;;29.60;2.80;;;4.20;99.90;;;;;;4990555;28;20201;-66
2023/01/31 03:32:45;;;;;;;14.20;2.60;;;4.20;99.90;;;;;;4996647;28;20212;-66
2023/01/31 03:35:12;;;;;;;20.80;3.07;;;4.10;99.90;;;;;;5004533;28;20324;-65
2023/01/31 03:37:47;;;;;;;18.17;3.00;;;4.10;99.90;;;;;;5006005;28;20202;-66
2023/01/31 03:40:20;;;;;;;16.20;2.53;;;4.10;99.90;;;;;;4995187;28;20221;-65
2023/01/31 03:42:52;;;;;;;20.00;2.93;;;4.10;99.90;;;;;;5006063;28;20249;-66
2023/01/31 03:45:27;;;;;;;16.20;3.20;;;4.10;99.90;;;;;;5001738;28;20206;-65
2023/01/31 03:47:56;;;;;;;10.53;1.93;;;4.10;99.90;;;;;;4974865;28;20272;-65
2023/01/31 03:50:26;;;;;;;15.47;2.90;;;4.10;99.90;;;;;;5007174;28;20913;-65
2023/01/31 03:52:58;;;;;;;9.13;2.00;;;4.00;99.90;;;;;;5002764;28;21028;-65
2023/01/31 03:55:31;;;;;;;7.70;2.53;;;4.00;99.90;;;;;;5005975;28;20202;-65
2023/01/31 03:58:02;;;;;;;7.43;1.93;;;4.00;99.90;;;;;;4994515;28;20198;-65
2023/01/31 04:00:29;;;;;;;12.83;2.47;;;4.00;99.90;;;;;;4997570;28;20207;-65
2023/01/31 04:03:04;;;;;;;15.70;2.57;;;4.00;99.90;;;;;;5000712;28;20226;-67
2023/01/31 04:05:32;;;;;;;10.80;2.07;;;4.10;99.90;;;;;;4992515;28;20493;-66
2023/01/31 04:07:59;;;;;;;16.50;2.17;;;4.10;99.90;;;;;;5009488;28;20209;-65
2023/01/31 04:10:27;;;;;;;14.13;2.23;;;4.00;99.90;;;;;;5005337;28;20191;-65
2023/01/31 04:12:54;;;;;;;9.97;2.50;;;4.10;99.90;;;;;;4994825;28;20210;-65
2023/01/31 04:15:21;;;;;;;17.70;2.57;;;4.10;99.90;;;;;;4985430;28;20249;-65
2023/01/31 04:17:47;;;;;;;13.90;2.33;;;4.10;99.90;;;;;;5005889;28;20198;-65
2023/01/31 04:20:15;;;;;;;12.47;2.27;;;4.10;99.90;;;;;;4973264;28;20210;-65
2023/01/31 04:22:41;;;;;;;11.80;1.87;;;4.30;99.90;;;;;;5008649;28;20230;-66
2023/01/31 04:25:09;;;;;;;14.77;2.63;;;4.10;99.90;;;;;;5002362;28;20210;-65
2023/01/31 04:27:37;;;;;;;12.70;2.03;;;4.20;99.90;;;;;;4991106;28;20202;-65
2023/01/31 04:30:05;;;;;;;15.13;2.20;;;4.20;99.90;;;;;;4999775;28;20205;-66
2023/01/31 04:32:32;;;;;;;13.20;2.80;;;4.10;99.90;;;;;;4990020;28;20207;-65
2023/01/31 04:34:59;;;;;;;11.10;1.90;;;4.20;99.90;;;;;;4968129;28;20210;-65
2023/01/31 04:37:26;;;;;;;14.67;2.80;;;4.20;99.90;;;;;;5007043;28;20206;-66
2023/01/31 04:39:52;;;;;;;9.73;2.67;;;4.20;99.90;;;;;;4991556;28;20206;-65
2023/01/31 04:42:19;;;;;;;5.53;1.57;;;4.20;99.90;;;;;;4989676;28;20222;-65
2023/01/31 04:44:48;;;;;;;16.53;2.67;;;4.20;99.90;;;;;;5005640;28;20209;-66
2023/01/31 04:47:14;;;;;;;7.13;2.20;;;4.20;99.90;;;;;;4994131;28;20207;-65
2023/01/31 04:49:42;;;;;;;9.90;2.70;;;4.20;99.90;;;;;;4985495;28;20229;-66
2023/01/31 04:52:10;;;;;;;8.50;1.60;;;4.20;99.90;;;;;;4982478;28;20739;-65
2023/01/31 04:54:37;;;;;;;8.50;1.67;;;4.20;99.90;;;;;;4998927;28;20280;-65
2023/01/31 04:57:04;;;;;;;15.47;2.83;;;4.20;99.90;;;;;;4985116;28;21097;-65
2023/01/31 04:59:31;;;;;;;11.47;2.13;;;4.20;99.90;;;;;;5000717;28;20213;-66
2023/01/31 05:01:59;;;;;;;8.50;1.87;;;4.20;99.90;;;;;;4975381;28;21339;-65
2023/01/31 05:04:26;;;;;;;14.83;2.03;;;4.20;99.90;;;;;;4985436;28;20218;-66
2023/01/31 05:06:52;;;;;;;9.83;2.07;;;4.20;99.90;;;;;;4947045;28;20251;-64
2023/01/31 05:09:21;;;;;;;9.40;2.03;;;4.20;99.90;;;;;;4999098;28;20214;-65
2023/01/31 05:11:48;;;;;;;12.77;2.23;;;4.20;99.90;;;;;;4992186;28;20339;-65
2023/01/31 05:14:15;;;;;;;17.87;2.37;;;4.20;99.90;;;;;;4982958;28;20421;-65
2023/01/31 05:16:44;;;;;;;15.20;2.37;;;4.20;99.90;;;;;;4996462;28;20247;-65
2023/01/31 05:19:12;;;;;;;13.07;1.80;;;4.40;99.90;;;;;;4994330;28;20206;-65
2023/01/31 05:24:20;;;;;;;10.30;1.53;;;4.30;99.90;;;;;;5002719;28;20237;-65
2023/01/31 05:26:49;;;;;;;5.57;1.33;;;4.20;99.90;;;;;;5001192;28;20791;-65
2023/01/31 05:29:16;;;;;;;8.40;1.47;;;4.20;99.90;;;;;;4983248;28;20214;-65
2023/01/31 05:31:43;;;;;;;9.13;2.50;;;4.30;99.90;;;;;;5000502;28;20194;-65
2023/01/31 05:34:13;;;;;;;11.87;1.73;;;4.20;99.90;;;;;;4981186;28;20298;-65
2023/01/31 05:36:42;;;;;;;9.67;1.97;;;4.30;99.90;;;;;;4967619;28;20226;-66
2023/01/31 05:39:09;;;;;;;8.30;1.43;;;4.30;99.90;;;;;;4990355;28;20206;-65
2023/01/31 05:41:36;;;;;;;11.23;1.90;;;4.20;99.90;;;;;;5000846;28;20752;-65
2023/01/31 05:44:03;;;;;;;8.57;1.67;;;4.20;99.90;;;;;;4985898;28;20217;-65
2023/01/31 05:46:30;;;;;;;10.27;2.17;;;4.20;99.90;;;;;;4996146;28;20199;-65
2023/01/31 05:48:57;;;;;;;11.77;2.17;;;4.20;99.90;;;;;;4978382;28;20226;-66
2023/01/31 05:51:24;;;;;;;8.27;1.97;;;4.30;99.90;;;;;;4994604;28;20206;-65
2023/01/31 05:53:53;;;;;;;6.93;1.63;;;4.30;99.90;;;;;;4963876;28;20198;-65
2023/01/31 05:56:20;;;;;;;14.10;2.27;;;4.20;99.90;;;;;;4977421;28;20763;-65
2023/01/31 05:58:49;;;;;;;7.67;2.00;;;4.30;99.90;;;;;;4984338;28;20225;-65
2023/01/31 06:01:16;;;;;;;13.03;2.43;;;4.30;99.90;;;;;;4994170;28;20253;-65
2023/01/31 06:03:43;;;;;;;6.57;1.60;;;4.30;99.90;;;;;;4988042;28;21232;-65
2023/01/31 06:06:10;;;;;;;11.30;1.90;;;4.30;99.90;;;;;;5001831;28;20202;-65
2023/01/31 06:08:36;;;;;;;11.90;1.90;;;4.30;99.90;;;;;;4955603;28;20718;-65
2023/01/31 06:11:05;;;;;;;17.73;3.00;;;4.40;99.90;;;;;;4989098;28;20845;-65
2023/01/31 06:13:32;;;;;;;11.77;2.33;;;4.40;99.90;;;;;;4994810;28;20207;-66
2023/01/31 06:16:00;;;;;;;13.03;1.93;;;4.40;99.90;;;;;;4963012;28;20211;-65
2023/01/31 06:18:26;;;;;;;10.33;3.27;;;4.40;99.90;;;;;;4991513;28;20221;-65
2023/01/31 06:20:53;;;;;;;14.47;2.97;;;4.40;99.90;;;;;;4975445;28;20986;-65
2023/01/31 06:23:20;;;;;;;10.33;2.57;;;4.40;99.90;;;;;;4964755;28;20237;-65
2023/01/31 06:25:49;;;;;;;5.70;2.17;;;4.40;99.90;;;;;;4989703;28;20226;-66
2023/01/31 06:28:18;;;;;;;11.70;2.73;;;4.40;99.90;;;;;;4998140;28;20222;-65
2023/01/31 06:30:45;;;;;;;9.57;2.33;;;4.50;99.90;;;;;;4972091;28;20201;-65
2023/01/31 06:33:12;;;;;;;10.60;2.57;;;4.50;99.90;;;;;;5001995;28;20206;-65
2023/01/31 06:35:40;;;;;;;11.30;2.67;;;4.50;99.90;;;;;;4990021;28;20234;-65
2023/01/31 06:38:07;;;;;;;14.90;3.13;;;4.50;99.90;;;;;;4999291;28;20206;-66
2023/01/31 06:40:35;;;;;;;9.90;2.13;;;4.60;99.90;;;;;;4933321;28;20220;-65
2023/01/31 06:43:02;;;;;;;13.10;2.80;;;4.60;99.90;;;;;;5002984;28;20304;-65
2023/01/31 06:45:30;;;;;;;14.63;3.30;;;4.60;99.90;;;;;;4977827;28;20192;-65
2023/01/31 06:47:57;;;;;;;9.17;2.57;;;4.60;99.90;;;;;;4995078;28;20265;-66
2023/01/31 06:50:24;;;;;;;8.57;2.73;;;4.60;99.90;;;;;;4988957;28;20656;-65
2023/01/31 06:52:51;;;;;;;8.80;2.50;;;4.60;99.90;;;;;;5001767;28;20672;-65
2023/01/31 06:55:17;;;;;;;18.53;3.50;;;4.70;99.90;;;;;;4972034;28;20218;-66
2023/01/31 06:57:48;;;;;;;9.23;3.03;;;4.80;99.90;;;;;;5001154;28;20205;-65
2023/01/31 07:00:17;;;;;;;10.17;3.23;;;4.80;99.90;;;;;;4994415;28;20217;-65
2023/01/31 07:02:45;;;;;;;15.40;4.37;;;4.90;99.90;;;;;;4995926;28;20238;-66
2023/01/31 07:05:12;;;;;;;17.20;3.63;;;4.80;99.90;;;;;;4992428;28;20423;-65
2023/01/31 07:07:39;;;;;;;8.27;3.27;;;4.80;99.90;;;;;;4966369;28;20676;-65
2023/01/31 07:10:07;;;;;;;17.53;3.77;;;4.90;99.90;;;;;;4964027;28;20264;-65
2023/01/31 07:12:33;;;;;;;12.83;3.50;;;4.90;99.90;;;;;;4984551;28;20695;-66
2023/01/31 07:15:00;;;;;;;11.20;3.53;;;4.90;99.90;;;;;;5002525;28;20228;-65
2023/01/31 07:17:28;;;;;;;8.57;3.33;;;4.90;99.90;;;;;;4984239;28;20202;-65
2023/01/31 07:19:56;;;;;;;18.87;3.87;;;4.90;99.90;;;;;;4993101;28;20202;-66
2023/01/31 07:22:23;;;;;;;11.27;3.60;;;4.90;99.90;;;;;;4988503;28;20221;-66
2023/01/31 07:24:50;;;;;;;14.67;3.70;;;4.90;99.90;;;;;;4959234;28;20206;-65
2023/01/31 07:27:17;;;;;;;12.60;3.53;;;5.00;99.90;;;;;;4987633;28;20210;-65
2023/01/31 07:29:44;;;;;;;15.93;3.57;;;5.00;99.90;;;;;;4984234;28;20209;-65
2023/01/31 07:32:11;;;;;;;22.40;3.77;;;5.00;99.90;;;;;;4985038;23;20241;-66
2023/01/31 07:34:38;;;;;;;12.47;3.37;;;5.00;99.90;;;;;;4970754;28;20233;-66
2023/01/31 07:37:06;;;;;;;12.17;3.43;;;5.00;99.90;;;;;;4997886;28;20205;-65
2023/01/31 07:39:33;;;;;;;19.40;4.10;;;5.10;99.90;;;;;;4994830;28;20198;-65
2023/01/31 07:41:59;;;;;;;13.97;3.10;;;5.10;99.90;;;;;;4966232;28;20237;-65
2023/01/31 07:44:26;;;;;;;14.17;3.67;;;5.10;99.90;;;;;;4991665;28;20206;-65
2023/01/31 07:46:55;;;;;;;18.50;3.80;;;5.10;99.90;;;;;;4990584;28;20572;-66
2023/01/31 07:49:22;;;;;;;11.73;2.90;;;5.10;99.90;;;;;;5004745;28;20213;-65
2023/01/31 07:51:49;;;;;;;11.40;3.10;;;5.10;99.90;;;;;;4994793;28;20955;-65
2023/01/31 07:54:17;;;;;;;15.43;4.30;;;5.10;99.90;;;;;;4990790;28;20245;-66
2023/01/31 07:56:44;;;;;;;8.97;2.67;;;5.10;99.90;;;;;;4977165;28;20209;-65
2023/01/31 07:59:12;;;;;;;18.87;3.83;;;5.10;99.90;;;;;;4974832;28;20242;-66
2023/01/31 08:04:23;;;;;;;19.47;4.23;;;5.20;99.90;;;;;;4996978;28;20229;-65
2023/01/31 08:06:52;;;;;;;20.30;5.13;;;5.20;99.90;;;;;;4991851;28;20832;-66
2023/01/31 08:09:21;;;;;;;14.57;4.37;;;5.20;99.90;;;;;;4982058;28;20226;-66
2023/01/31 08:11:47;;;;;;;15.17;4.40;;;5.20;99.90;;;;;;4991204;28;20974;-65
2023/01/31 08:14:14;;;;;;;9.90;3.90;;;5.20;99.90;;;;;;4969601;28;20747;-67
2023/01/31 08:16:41;;;;;;;15.73;4.43;;;5.20;99.90;;;;;;4988000;28;20214;-66
2023/01/31 08:19:08;;;;;;;12.20;3.97;;;5.30;99.90;;;;;;4993207;28;20207;-66
2023/01/31 08:21:34;;;;;;;12.67;4.20;;;5.20;99.90;;;;;;5004125;28;20673;-66
2023/01/31 08:24:01;;;;;;;19.60;5.17;;;5.30;99.90;;;;;;5001951;28;20229;-66
2023/01/31 08:26:29;;;;;;;8.80;3.90;;;5.30;99.90;;;;;;4993788;28;20270;-65
2023/01/31 08:28:58;;;;;;;15.70;4.50;;;5.30;99.90;;;;;;4964182;28;20743;-66
2023/01/31 08:31:27;;;;;;;15.23;5.07;;;5.30;99.90;;;;;;4995962;28;20230;-66
2023/01/31 08:33:54;;;;;;;10.97;4.37;;;5.30;99.90;;;;;;4981362;28;20240;-66
2023/01/31 08:36:22;;;;;;;14.57;4.93;;;5.30;99.90;;;;;;5001786;28;20194;-66
2023/01/31 08:38:49;;;;;;;16.23;4.97;;;5.30;99.90;;;;;;4997391;28;20218;-66
2023/01/31 08:41:17;;;;;;;15.67;4.70;;;5.30;99.90;;;;;;4982004;28;20218;-65
2023/01/31 08:43:48;;;;;;;15.80;4.37;;;5.30;99.90;;;;;;4965592;28;20247;-67
2023/01/31 08:46:15;;;;;;;16.70;4.33;;;5.30;99.90;;;;;;4989220;28;20226;-65
2023/01/31 08:48:42;;;;;;;14.43;4.60;;;5.30;99.90;;;;;;4986421;28;20226;-66
2023/01/31 08:51:12;;;;;;;11.03;5.17;;;5.40;99.90;;;;;;4981671;28;20308;-66
2023/01/31 08:53:40;;;;;;;26.77;5.27;;;5.30;99.90;;;;;;4994865;28;20211;-65
2023/01/31 08:56:08;;;;;;;22.87;4.50;;;5.40;99.90;;;;;;4989756;28;20230;-66
2023/01/31 08:58:37;;;;;;;12.63;4.63;;;5.40;99.90;;;;;;4985678;28;20233;-65
2023/01/31 09:01:08;;;;;;;10.97;4.83;;;5.40;99.90;;;;;;4953748;28;20215;-66
2023/01/31 09:03:37;;;;;;;13.10;4.60;;;5.40;99.90;;;;;;4992779;28;21573;-66
2023/01/31 09:06:05;;;;;;;25.50;4.93;;;5.50;99.90;;;;;;4981888;28;20206;-66
2023/01/31 09:08:32;;;;;;;16.97;4.80;;;5.40;99.90;;;;;;5000849;28;20198;-66
2023/01/31 09:11:00;;;;;;;14.80;5.30;;;5.50;99.90;;;;;;4981665;28;20205;-66
2023/01/31 09:13:27;;;;;;;17.20;5.23;;;5.50;99.90;;;;;;4983819;28;20199;-65
2023/01/31 09:15:58;;;;;;;15.50;5.00;;;5.40;99.90;;;;;;4965171;28;20217;-66
2023/01/31 09:18:27;;;;;;;11.00;4.53;;;5.50;99.90;;;;;;4984523;28;20303;-65
2023/01/31 09:20:54;;;;;;;24.87;5.70;;;5.50;99.90;;;;;;4988139;28;20578;-65
2023/01/31 09:23:21;;;;;;;13.80;4.97;;;;;;;;;;5003407;28;20221;-66
2023/01/31 09:25:53;;;;;;;16.07;4.73;;;5.50;99.90;;;;;;5000160;28;20199;-65
2023/01/31 09:28:20;;;;;;;13.10;4.63;;;5.50;99.90;;;;;;4973950;28;20225;-65
2023/01/31 09:30:47;;;;;;;17.90;5.20;;;5.50;99.90;;;;;;4967917;28;20942;-66
2023/01/31 09:33:14;;;;;;;14.90;5.33;;;5.50;99.90;;;;;;4990269;28;20218;-65
2023/01/31 09:35:42;;;;;;;12.27;4.70;;;5.60;99.90;;;;;;4999454;28;20203;-66
2023/01/31 09:38:09;;;;;;;14.17;4.40;;;5.60;99.90;;;;;;4987157;28;20778;-66
2023/01/31 09:40:39;;;;;;;15.53;4.47;;;5.60;99.90;;;;;;4994441;28;20210;-66
2023/01/31 09:43:11;;;;;;;12.10;4.93;;;5.60;99.90;;;;;;4989964;28;20230;-66
2023/01/31 09:45:42;;;;;;;10.97;4.13;;;5.70;99.90;;;;;;4986675;28;20297;-65
2023/01/31 09:48:16;;;;;;;12.47;4.20;;;5.70;99.90;;;;;;4957233;28;20618;-65
2023/01/31 09:50:49;;;;;;;15.27;3.97;;;5.60;99.90;;;;;;4996856;28;21320;-65
2023/01/31 09:53:20;;;;;;;13.50;4.33;;;5.70;99.90;;;;;;4987732;28;20210;-66
2023/01/31 09:55:56;;;;;;;11.40;4.17;;;5.80;99.90;;;;;;5003108;28;20299;-66
2023/01/31 09:58:31;;;;;;;12.80;3.90;;;5.80;99.90;;;;;;4988123;28;20226;-66
2023/01/31 10:01:07;;;;;;;15.40;3.77;;;5.80;99.90;;;;;;4988301;28;26645;-67
2023/01/31 10:03:52;;;;;;;12.97;4.00;;;5.80;99.90;;;;;;4951887;28;21409;-66
2023/01/31 10:06:24;;;;;;;13.57;4.63;;;5.90;99.90;;;;;;4997895;28;20228;-66
2023/01/31 10:08:55;;;;;;;14.13;5.03;;;5.90;99.90;;;;;;4991430;28;20217;-66
2023/01/31 10:11:34;;;;;;;16.07;5.40;;;5.90;99.90;;;;;;5003295;28;21120;-65
2023/01/31 10:14:09;;;;;;;13.07;4.70;;;5.90;99.90;;;;;;5002487;28;20283;-65
2023/01/31 10:16:44;;;;;;;11.90;4.27;;;5.80;99.90;;;;;;4969606;28;20311;-66
2023/01/31 10:19:15;;;;;;;10.47;3.53;;;5.90;99.90;;;;;;4967838;28;20305;-65
2023/01/31 10:21:47;;;;;;;16.67;3.77;;;5.90;99.90;;;;;;4993987;28;20205;-66
2023/01/31 10:24:20;;;;;;;12.63;3.20;;;5.90;99.90;;;;;;4987963;28;20350;-66
2023/01/31 10:26:51;;;;;;;14.33;4.33;;;5.90;99.90;;;;;;4995606;28;20234;-66
2023/01/31 10:29:27;;;;;;;11.07;4.07;;;5.90;99.90;;;;;;4992163;28;20212;-65
2023/01/31 10:31:58;;;;;;;8.80;3.40;;;5.90;99.90;;;;;;4968392;28;20240;-65
2023/01/31 10:34:29;;;;;;;15.43;3.67;;;5.90;99.90;;;;;;4959021;28;20583;-66
2023/01/31 10:37:01;;;;;;;15.57;4.00;;;6.00;99.90;;;;;;5000632;28;20202;-66
2023/01/31 10:39:32;;;;;;;13.80;4.00;;;6.00;99.90;;;;;;4986333;28;20661;-66
2023/01/31 10:42:14;;;;;;;13.30;3.93;;;6.00;99.90;;;;;;5003270;28;20202;-66
2023/01/31 10:44:47;;;;;;;13.97;3.23;;;6.00;99.90;;;;;;5003151;28;20322;-66
2023/01/31 10:47:15;;;;;;;12.50;3.17;;;6.00;99.90;;;;;;4975288;28;20206;-66
2023/01/31 10:49:45;;;;;;;16.23;4.23;;;6.00;99.90;;;;;;4969368;28;21484;-66
2023/01/31 10:52:27;;;;;;;12.07;4.10;;;6.10;99.90;;;;;;4989126;28;20763;-66
2023/01/31 10:55:03;;;;;;;8.87;3.37;;;6.10;99.90;;;;;;4997866;28;20794;-66
2023/01/31 10:57:31;;;;;;;18.27;3.50;;;6.10;99.90;;;;;;4976304;28;20217;-66
2023/01/31 10:59:58;;;;;;;15.53;4.27;;;6.20;99.90;;;;;;4996876;28;20196;-66
2023/01/31 11:02:27;;;;;;;7.87;2.97;;;6.10;99.90;;;;;;4967854;28;21001;-66
2023/01/31 11:04:56;;;;;;;12.23;3.57;;;6.20;99.90;;;;;;4960702;28;20257;-66
2023/01/31 11:07:25;;;;;;;11.87;2.87;;;6.20;99.90;;;;;;4984415;28;20213;-66
2023/01/31 11:09:54;;;;;;;13.63;2.50;;;6.30;99.90;;;;;;4990030;28;20303;-66
2023/01/31 11:12:22;;;;;;;10.43;2.47;;;6.30;99.90;;;;;;4988345;28;20221;-66
2023/01/31 11:15:06;;;;;;;11.03;3.10;;;6.30;99.90;;;;;;4996919;28;20209;-66
2023/01/31 11:17:37;;;;;;;13.40;2.83;;;6.30;99.90;;;;;;4992920;28;21120;-67
2023/01/31 11:20:06;;;;;;;17.50;2.70;;;6.30;99.90;;;;;;4989549;28;20214;-66
2023/01/31 11:22:36;;;;;;;12.97;3.43;;;6.60;99.90;;;;;;4946279;28;20236;-66
2023/01/31 11:25:04;;;;;;;15.50;3.20;;;6.50;99.90;;;;;;4997681;28;20237;-66
2023/01/31 11:27:37;;;;;;;18.03;3.40;;;6.50;99.90;;;;;;4980967;28;20206;-66
2023/01/31 11:30:07;;;;;;;7.60;2.27;;;6.50;99.90;;;;;;5003213;28;20201;-67
2023/01/31 11:32:37;;;;;;;7.63;2.50;;;6.50;99.90;;;;;;4973282;28;20212;-67
2023/01/31 11:35:06;;;;;;;9.87;2.13;;;6.40;99.90;;;;;;4987178;28;20210;-66
2023/01/31 11:37:35;;;;;;;11.20;2.30;;;6.40;99.90;;;;;;4956599;28;20218;-66
2023/01/31 11:40:04;;;;;;;7.43;2.00;;;6.40;99.90;;;;;;5004278;28;20354;-67
2023/01/31 11:42:31;;;;;;;6.87;2.13;;;6.40;99.90;;;;;;4995760;28;20281;-67
2023/01/31 11:45:00;;;;;;;12.00;2.30;;;6.40;99.90;;;;;;4991458;28;20723;-67
2023/01/31 11:47:43;;;;;;;10.20;2.23;;;6.40;99.90;;;;;;4985611;28;20202;-67
2023/01/31 11:50:20;;;;;;;7.70;1.80;;;6.50;99.90;;;;;;4991185;28;20204;-67
2023/01/31 11:52:54;;;;;;;6.80;1.97;;;6.50;99.90;;;;;;4967362;28;20213;-67
2023/01/31 11:55:21;;;;;;;5.67;1.50;;;6.50;99.90;;;;;;4999156;28;20210;-67
2023/01/31 11:57:55;;;;;;;6.30;1.63;;;6.50;99.90;;;;;;4978153;28;20208;-67
2023/01/31 12:00:25;;;;;;;3.80;1.60;;;6.50;99.90;;;;;;5003949;28;20210;-67
2023/01/31 12:02:59;;;;;;;2.67;1.63;;;6.50;99.90;;;;;;4981201;28;20198;-66
2023/01/31 12:05:35;;;;;;;3.87;1.53;;;6.60;99.90;;;;;;4982090;28;20361;-67
2023/01/31 12:08:04;;;;;;;4.83;1.80;;;6.60;99.90;;;;;;4968211;28;20225;-67
2023/01/31 12:10:35;;;;;;;3.30;1.30;;;6.60;99.90;;;;;;4994959;28;20229;-66
2023/01/31 12:13:11;;;;;;;4.63;1.50;;;6.60;99.90;;;;;;4985458;28;21422;-67
2023/01/31 12:15:48;;;;;;;3.30;1.20;;;6.60;99.90;;;;;;4996133;28;20221;-66
2023/01/31 12:18:36;;;;;;;5.60;1.60;;;6.60;99.90;;;;;;4989020;28;20233;-65
2023/01/31 12:21:10;;;;;;;7.67;1.57;;;6.70;99.90;;;;;;4968065;28;20226;-66
2023/01/31 12:23:51;;;;;;;6.30;1.77;;;6.60;99.90;;;;;;4966804;28;20230;-66
2023/01/31 12:26:25;;;;;;;3.57;1.37;;;6.70;99.90;;;;;;5005309;28;20206;-66
2023/01/31 12:29:18;;;;;;;6.43;1.53;;;6.70;99.90;;;;;;4985296;28;20203;-67
2023/01/31 12:32:04;;;;;;;4.60;1.50;;;6.70;99.90;;;;;;4991568;28;20222;-67
2023/01/31 12:34:57;;;;;;;4.03;1.70;;;6.70;99.90;;;;;;5004658;28;20241;-67
2023/01/31 12:37:36;;;;;;;2.93;1.53;;;6.70;99.90;;;;;;4997578;28;20207;-67
2023/01/31 12:40:26;;;;;;;4.47;1.47;;;6.70;99.90;;;;;;4960556;28;20218;-66
2023/01/31 12:42:58;;;;;;;6.83;1.40;;;6.60;99.90;;;;;;5002032;28;20783;-67
2023/01/31 12:45:44;;;;;;;4.37;1.43;;;6.70;99.90;;;;;;4994415;28;20230;-67
2023/01/31 12:48:31;;;;;;;1.83;1.30;;;6.70;99.90;;;;;;4982357;28;20205;-67
2023/01/31 12:51:07;;;;;;;2.63;1.33;;;6.70;99.90;;;;;;4984086;28;20205;-66
2023/01/31 12:53:53;;;;;;;1.93;1.10;;;6.80;99.90;;;;;;4998624;28;20718;-67
2023/01/31 12:56:45;;;;;;;2.43;1.27;;;6.90;99.90;;;;;;4963521;28;20232;-67
2023/01/31 12:59:26;;;;;;;3.53;1.07;;;6.90;99.90;;;;;;5001568;28;20289;-67
2023/01/31 13:01:59;;;;;;;3.17;1.27;;;6.90;99.90;;;;;;4977611;28;20206;-66
2023/01/31 13:04:37;;;;;;;1.90;0.80;;;6.90;99.90;;;;;;4984937;28;20231;-66
2023/01/31 13:07:07;;;;;;;3.67;1.00;;;6.90;99.90;;;;;;4989784;28;21484;-67
2023/01/31 13:09:36;;;;;;;5.40;2.20;;;6.90;99.90;;;;;;5002968;28;20198;-67
2023/01/31 13:12:09;;;;;;;5.83;3.13;;;6.90;99.90;;;;;;4968208;28;20216;-68
2023/01/31 13:14:40;;;;;;;9.70;3.87;;;6.90;99.90;;;;;;4998434;28;20807;-68
2023/01/31 13:17:12;;;;;;;5.93;2.87;;;6.90;99.90;;;;;;4972374;28;20222;-67